Time;durP1;ratioP1;P1;durP2;ratioP2;P2;SDS_P1;SDS_P2;PMS_P1;PMS_P2;Temp;Humidity;BMP_temperature;BMP_pressure;BME280_temperature;BME280_humidity;BME280_pressure;Samples;Min_cycle;Max_cycle;Signal;HPM_P1;HPM_P2
2023/09/05 00:02:13;;;;;;;;;;;;;;;24.50;50.89;101074.13;7399628;19;1627;-46
2023/09/05 00:04:42;;;;;;;;;;;;;;;24.59;50.99;101083.09;7401777;19;1455;-46
2023/09/05 00:07:11;;;;;;;;;;;;;;;24.62;50.67;101080.09;7399820;19;1894;-46
2023/09/05 00:09:42;;;;;;;;;;;;;;;24.56;50.96;101078.88;7388227;19;1367;-46
2023/09/05 00:12:11;;;;;;;;;;;;;;;24.61;50.86;101071.13;7400882;19;1355;-46
2023/09/05 00:14:39;;;;;;;;;;;;;;;24.61;50.86;101072.97;7399237;19;1528;-46
2023/09/05 00:17:07;;;;;;;;;;;;;;;24.63;50.75;101070.09;7400072;19;1611;-46
2023/09/05 00:19:36;;;;;;;;;;;;;;;24.58;50.87;101049.81;7397638;19;1864;-46
2023/09/05 00:22:04;;;;;;;;;;;;;;;24.63;50.79;101057.47;7400474;19;1316;-49
2023/09/05 00:24:33;;;;;;;;;;;;;;;24.68;50.40;101049.69;7402195;19;1046;-47
2023/09/05 00:27:06;;;;;;;;;;;;;;;24.75;50.59;101056.13;7398003;19;1556;-46
2023/09/05 00:29:34;;;;;;;;;;;;;;;24.68;50.02;101059.66;7395658;19;1445;-53
2023/09/05 00:32:03;;;;;;;;;;;;;;;24.70;50.44;101068.44;7398527;19;1429;-46
2023/09/05 00:34:32;;;;;;;;;;;;;;;24.71;50.26;101059.31;7397613;19;1362;-46
2023/09/05 00:37:00;;;;;;;;;;;;;;;24.64;50.43;101064.53;7396806;19;1403;-46
2023/09/05 00:39:29;;;;;;;;;;;;;;;24.49;50.83;101072.44;7393284;19;1859;-46
2023/09/05 00:41:57;;;;;;;;;;;;;;;24.57;50.76;101074.31;7396201;19;1371;-46
2023/09/05 00:44:29;;;;;;;;;;;;;;;24.55;50.80;101071.81;7396612;19;1500;-46
2023/09/05 00:46:58;;;;;;;;;;;;;;;24.36;50.90;101077.44;7398413;19;1390;-46
2023/09/05 00:49:27;;;;;;;;;;;;;;;23.90;50.68;100995.88;7397681;19;1696;-46
2023/09/05 00:51:56;;;;;;;;;;;;;;;24.49;50.64;101075.13;7399943;19;1057;-45
2023/09/05 00:54:24;;;;;;;;;;;;;;;24.55;50.83;101090.72;7400091;19;1458;-46
2023/09/05 00:56:54;;;;;;;;;;;;;;;24.59;50.61;101078.56;7399636;19;1547;-46
2023/09/05 00:59:22;;;;;;;;;;;;;;;24.64;50.45;101067.25;7396786;19;1844;-46
2023/09/05 01:01:53;;;;;;;;;;;;;;;24.67;50.51;101071.47;7398135;19;1417;-46
2023/09/05 01:04:21;;;;;;;;;;;;;;;24.68;50.35;101075.88;7399437;19;1559;-46
2023/09/05 01:06:55;;;;;;;;;;;;;;;24.70;50.23;101073.84;7400256;19;1992;-46
2023/09/05 01:09:28;;;;;;;;;;;;;;;24.75;49.97;101072.34;7384413;19;1630;-48
2023/09/05 01:11:57;;;;;;;;;;;;;;;24.70;50.17;101066.59;7398723;19;1747;-46
2023/09/05 01:14:25;;;;;;;;;;;;;;;24.70;50.00;101063.03;7398306;19;1815;-46
2023/09/05 01:17:01;;;;;;;;;;;;;;;24.77;49.96;101075.72;7398780;19;1612;-46
2023/09/05 01:19:30;;;;;;;;;;;;;;;24.77;50.04;101069.47;7397024;19;1854;-46
2023/09/05 01:22:04;;;;;;;;;;;;;;;24.73;49.92;101055.44;7398600;19;1724;-46
2023/09/05 01:24:35;;;;;;;;;;;;;;;24.80;50.05;101066.44;7399041;19;1591;-46
2023/09/05 01:27:04;;;;;;;;;;;;;;;24.78;50.06;101066.59;7399147;19;1723;-46
2023/09/05 01:29:35;;;;;;;;;;;;;;;24.79;49.71;101071.00;7395103;19;1548;-46
2023/09/05 01:32:04;;;;;;;;;;;;;;;24.82;49.93;101077.94;7394589;19;2107;-44
2023/09/05 01:34:32;;;;;;;;;;;;;;;24.79;49.83;101081.81;7394391;19;1685;-45
2023/09/05 01:37:01;;;;;;;;;;;;;;;24.83;50.15;101087.75;7394486;19;1814;-45
2023/09/05 01:39:29;;;;;;;;;;;;;;;24.87;50.23;101075.59;7391985;19;1880;-44
2023/09/05 01:42:01;;;;;;;;;;;;;;;24.86;50.11;101098.22;7394179;19;1673;-45
2023/09/05 01:44:29;;;;;;;;;;;;;;;24.86;49.98;101100.94;7394001;19;1418;-45
2023/09/05 01:46:57;;;;;;;;;;;;;;;24.81;50.10;101100.59;7398586;19;1560;-44
2023/09/05 01:49:26;;;;;;;;;;;;;;;24.81;49.90;101082.50;7398213;19;1691;-45
2023/09/05 01:51:54;;;;;;;;;;;;;;;24.84;50.18;101083.19;7398282;19;1578;-44
2023/09/05 01:54:24;;;;;;;;;;;;;;;24.83;49.98;101093.16;7397939;19;1597;-44
2023/09/05 01:56:52;;;;;;;;;;;;;;;24.84;50.40;101089.44;7396893;19;1412;-44
2023/09/05 01:59:23;;;;;;;;;;;;;;;24.81;50.17;101130.34;7395345;19;1850;-45
2023/09/05 02:01:52;;;;;;;;;;;;;;;24.77;50.13;101088.38;7396335;19;1697;-44
2023/09/05 02:04:20;;;;;;;;;;;;;;;24.75;50.76;101080.47;7397180;19;1256;-44
2023/09/05 02:06:48;;;;;;;;;;;;;;;24.81;50.73;101084.38;7397110;19;1153;-43
2023/09/05 02:09:16;;;;;;;;;;;;;;;24.82;50.23;101099.56;7381841;19;1497;-43
2023/09/05 02:11:45;;;;;;;;;;;;;;;24.78;50.22;101117.97;7397097;19;1419;-45
2023/09/05 02:14:13;;;;;;;;;;;;;;;24.77;50.22;101115.44;7396808;19;1563;-44
2023/09/05 02:16:44;;;;;;;;;;;;;;;24.78;50.41;101112.56;7393989;19;1427;-44
2023/09/05 02:19:13;;;;;;;;;;;;;;;24.83;50.25;101122.91;7395724;19;1810;-44
2023/09/05 02:21:41;;;;;;;;;;;;;;;24.80;49.98;101117.81;7396237;19;1574;-44
2023/09/05 02:24:10;;;;;;;;;;;;;;;24.71;50.22;101113.41;7392746;19;1567;-44
2023/09/05 02:26:38;;;;;;;;;;;;;;;24.72;50.08;101120.50;7394167;19;1506;-44
2023/09/05 02:29:06;;;;;;;;;;;;;;;24.67;50.33;101112.03;7390656;19;1461;-44
2023/09/05 02:31:34;;;;;;;;;;;;;;;24.74;50.40;101122.03;7390866;19;1415;-44
2023/09/05 02:34:05;;;;;;;;;;;;;;;24.73;50.40;101124.91;7392918;19;1637;-44
2023/09/05 02:36:35;;;;;;;;;;;;;;;24.73;50.75;101123.06;7392902;19;1557;-44
2023/09/05 02:39:03;;;;;;;;;;;;;;;24.80;50.73;101128.66;7391565;19;1864;-44
2023/09/05 02:41:31;;;;;;;;;;;;;;;24.77;50.77;101120.84;7392546;19;1578;-44
2023/09/05 02:44:00;;;;;;;;;;;;;;;24.90;50.54;101126.63;7393202;19;1489;-44
2023/09/05 02:46:28;;;;;;;;;;;;;;;24.86;50.73;101114.44;7394210;19;1562;-44
2023/09/05 02:48:56;;;;;;;;;;;;;;;24.88;50.68;101120.53;7393075;19;1414;-44
2023/09/05 02:51:27;;;;;;;;;;;;;;;24.87;50.67;101128.81;7394442;19;1482;-44
2023/09/05 02:53:56;;;;;;;;;;;;;;;24.84;50.88;101131.88;7393158;19;1457;-43
2023/09/05 02:56:24;;;;;;;;;;;;;;;24.80;50.88;101126.78;7395526;19;1458;-43
2023/09/05 02:58:53;;;;;;;;;;;;;;;24.88;50.87;101131.38;7391245;19;1867;-43
2023/09/05 03:01:21;;;;;;;;;;;;;;;24.84;50.74;101124.59;7390751;19;1480;-44
2023/09/05 03:03:50;;;;;;;;;;;;;;;24.78;50.84;101111.72;7396240;19;1578;-44
2023/09/05 03:06:19;;;;;;;;;;;;;;;24.75;50.79;101137.25;7393637;19;1592;-43
2023/09/05 03:08:50;;;;;;;;;;;;;;;24.78;50.94;101136.91;7380191;19;1598;-43
2023/09/05 03:11:19;;;;;;;;;;;;;;;24.80;51.11;101124.06;7395072;19;1553;-44
2023/09/05 03:13:47;;;;;;;;;;;;;;;24.81;51.11;101133.91;7394712;19;1607;-45
2023/09/05 03:16:15;;;;;;;;;;;;;;;24.80;51.00;101144.88;7394387;19;1763;-45
2023/09/05 03:18:44;;;;;;;;;;;;;;;24.80;50.87;101134.06;7394740;19;1837;-45
2023/09/05 03:21:12;;;;;;;;;;;;;;;24.78;51.17;101147.72;7395232;19;1727;-45
2023/09/05 03:23:40;;;;;;;;;;;;;;;24.70;51.34;101144.16;7395975;19;1035;-45
2023/09/05 03:26:11;;;;;;;;;;;;;;;24.73;51.18;101130.31;7392392;19;1925;-45
2023/09/05 03:28:41;;;;;;;;;;;;;;;24.73;51.12;101150.09;7393055;19;1430;-45
2023/09/05 03:31:09;;;;;;;;;;;;;;;24.80;51.13;101150.28;7390336;19;1345;-45
2023/09/05 03:33:37;;;;;;;;;;;;;;;24.74;51.12;101150.94;7391267;19;1532;-45
2023/09/05 03:36:06;;;;;;;;;;;;;;;24.74;51.17;101150.94;7393521;19;1522;-44
2023/09/05 03:38:34;;;;;;;;;;;;;;;24.70;51.25;101155.00;7396136;19;1921;-45
2023/09/05 03:41:02;;;;;;;;;;;;;;;24.69;51.07;101145.16;7392681;19;1921;-45
2023/09/05 03:43:34;;;;;;;;;;;;;;;24.60;51.48;101158.66;7393472;19;1632;-44
2023/09/05 03:46:02;;;;;;;;;;;;;;;24.70;51.31;101157.69;7394150;19;1379;-45
2023/09/05 03:48:30;;;;;;;;;;;;;;;24.71;51.47;101167.47;7393677;19;1422;-45
2023/09/05 03:50:59;;;;;;;;;;;;;;;24.70;51.17;101165.81;7393611;19;1627;-45
2023/09/05 03:53:27;;;;;;;;;;;;;;;24.70;51.52;101165.81;7392671;19;1477;-44
2023/09/05 03:55:55;;;;;;;;;;;;;;;24.73;51.47;101157.34;7393096;19;1505;-45
2023/09/05 03:58:24;;;;;;;;;;;;;;;24.73;51.63;101157.34;7391165;19;1513;-45
2023/09/05 04:00:57;;;;;;;;;;;;;;;24.67;51.23;101139.94;7387783;19;1843;-45
2023/09/05 04:03:25;;;;;;;;;;;;;;;24.65;51.29;101151.91;7393694;19;1714;-45
2023/09/05 04:05:53;;;;;;;;;;;;;;;24.63;50.93;101159.34;7401304;19;1763;-43
2023/09/05 04:08:22;;;;;;;;;;;;;;;24.63;51.33;101154.81;7393607;19;1863;-45
2023/09/05 04:10:50;;;;;;;;;;;;;;;24.68;50.95;101144.31;7396542;19;1694;-45
2023/09/05 04:13:18;;;;;;;;;;;;;;;24.65;51.13;101157.31;7400974;19;1683;-45
2023/09/05 04:15:47;;;;;;;;;;;;;;;24.60;51.49;101149.72;7332399;19;12894;-44
2023/09/05 04:18:18;;;;;;;;;;;;;;;24.52;52.68;101174.00;7400507;19;1596;-44
2023/09/05 04:20:46;;;;;;;;;;;;;;;24.54;52.02;101151.19;7394931;19;1857;-44
2023/09/05 04:23:14;;;;;;;;;;;;;;;24.51;51.42;101142.56;7401031;19;1630;-45
2023/09/05 04:25:43;;;;;;;;;;;;;;;24.54;51.57;101144.97;7400946;19;1640;-45
2023/09/05 04:28:11;;;;;;;;;;;;;;;24.41;51.53;101151.63;7400826;19;1590;-45
2023/09/05 04:30:39;;;;;;;;;;;;;;;24.17;51.93;101144.25;7400863;19;1816;-45
2023/09/05 04:33:10;;;;;;;;;;;;;;;24.19;52.12;101152.19;7398810;19;1969;-44
2023/09/05 04:35:42;;;;;;;;;;;;;;;24.12;51.79;101148.44;7399562;19;1471;-45
2023/09/05 04:38:10;;;;;;;;;;;;;;;24.24;52.40;101143.63;7397797;19;1566;-44
2023/09/05 04:40:38;;;;;;;;;;;;;;;24.41;51.80;101140.81;7395664;19;1857;-45
2023/09/05 04:43:06;;;;;;;;;;;;;;;24.45;51.40;101141.31;7400202;19;1530;-46
2023/09/05 04:45:35;;;;;;;;;;;;;;;24.40;51.47;101141.81;7399232;19;1745;-46
2023/09/05 04:48:03;;;;;;;;;;;;;;;24.36;51.52;101137.75;7399604;19;1655;-45
2023/09/05 04:50:31;;;;;;;;;;;;;;;24.24;51.18;101133.66;7396128;19;2175;-45
2023/09/05 04:53:02;;;;;;;;;;;;;;;24.24;50.95;101143.63;7398356;19;1755;-45
2023/09/05 04:55:30;;;;;;;;;;;;;;;24.17;51.21;101165.88;7401714;19;1002;-44
2023/09/05 04:57:59;;;;;;;;;;;;;;;24.16;51.13;101137.16;7398700;19;1470;-45
2023/09/05 05:00:31;;;;;;;;;;;;;;;24.24;51.08;101143.63;7393665;19;1871;-45
2023/09/05 05:03:00;;;;;;;;;;;;;;;24.22;50.98;101147.31;7395669;19;1396;-44
2023/09/05 05:05:28;;;;;;;;;;;;;;;24.29;50.94;101157.47;7393763;19;1716;-44
2023/09/05 05:07:56;;;;;;;;;;;;;;;24.34;50.82;101150.56;7394907;19;1458;-46
2023/09/05 05:10:27;;;;;;;;;;;;;;;24.41;50.42;101140.81;7381439;19;1700;-46
2023/09/05 05:12:55;;;;;;;;;;;;;;;24.49;50.17;101148.13;7394740;19;1830;-46
2023/09/05 05:15:24;;;;;;;;;;;;;;;24.55;50.17;101142.09;7399549;19;1739;-45
2023/09/05 05:17:52;;;;;;;;;;;;;;;24.61;50.07;101136.03;7399680;19;1826;-45
2023/09/05 05:20:20;;;;;;;;;;;;;;;24.53;50.00;101132.44;7399304;19;1844;-45
2023/09/05 05:22:49;;;;;;;;;;;;;;;24.64;49.94;101140.25;7399913;19;1954;-46
2023/09/05 05:25:17;;;;;;;;;;;;;;;24.65;49.86;101143.81;7400511;19;1755;-44
2023/09/05 05:27:48;;;;;;;;;;;;;;;24.57;49.73;101145.50;7399346;19;1851;-45
2023/09/05 05:30:16;;;;;;;;;;;;;;;24.62;49.37;101126.06;7399081;19;1699;-45
2023/09/05 05:32:46;;;;;;;;;;;;;;;24.55;49.53;101155.63;7398655;19;1755;-45
2023/09/05 05:35:14;;;;;;;;;;;;;;;24.49;49.32;101131.91;7399518;19;1715;-46
2023/09/05 05:37:42;;;;;;;;;;;;;;;24.57;49.47;101129.25;7398787;19;1607;-45
2023/09/05 05:40:13;;;;;;;;;;;;;;;24.55;49.09;101131.28;7397680;19;1845;-45
2023/09/05 05:42:41;;;;;;;;;;;;;;;24.54;49.31;101124.16;7397480;19;1518;-45
2023/09/05 05:45:14;;;;;;;;;;;;;;;24.54;49.28;101117.91;7397731;19;1820;-45
2023/09/05 05:47:42;;;;;;;;;;;;;;;24.56;49.11;101122.16;7398764;19;1480;-45
2023/09/05 05:50:11;;;;;;;;;;;;;;;24.54;49.28;101116.06;7397547;19;1722;-46
2023/09/05 05:52:40;;;;;;;;;;;;;;;24.56;49.26;101127.56;7398645;19;1549;-45
2023/09/05 05:55:09;;;;;;;;;;;;;;;24.46;49.19;101129.50;7399924;19;1031;-45
2023/09/05 05:57:37;;;;;;;;;;;;;;;24.37;49.26;101116.97;7397463;19;1859;-45
2023/09/05 06:00:07;;;;;;;;;;;;;;;24.44;48.79;101106.38;7397328;19;1847;-45
2023/09/05 06:02:38;;;;;;;;;;;;;;;24.47;48.77;101128.53;7396324;19;1659;-45
2023/09/05 06:05:07;;;;;;;;;;;;;;;24.37;49.10;101114.25;7396984;19;1471;-44
2023/09/05 06:07:36;;;;;;;;;;;;;;;24.49;48.86;101131.91;7396704;19;1475;-44
2023/09/05 06:10:04;;;;;;;;;;;;;;;24.44;49.00;101126.13;7381061;19;1727;-45
2023/09/05 06:12:32;;;;;;;;;;;;;;;24.25;49.26;101124.50;7398276;19;1505;-45
2023/09/05 06:15:01;;;;;;;;;;;;;;;24.28;49.10;101126.06;7396925;19;1455;-46
2023/09/05 06:17:29;;;;;;;;;;;;;;;24.13;49.52;101142.88;7397782;19;1478;-45
2023/09/05 06:20:00;;;;;;;;;;;;;;;24.41;48.99;101130.00;7396969;19;1843;-44
2023/09/05 06:22:28;;;;;;;;;;;;;;;24.38;48.91;101140.31;7395609;19;1612;-44
2023/09/05 06:24:57;;;;;;;;;;;;;;;24.19;49.57;101153.06;7396229;19;1365;-44
2023/09/05 06:27:25;;;;;;;;;;;;;;;24.25;49.52;101156.09;7393705;19;1545;-50
2023/09/05 06:29:53;;;;;;;;;;;;;;;24.04;49.90;101176.25;7396102;19;1809;-45
2023/09/05 06:32:22;;;;;;;;;;;;;;;23.90;50.34;101183.09;7396140;19;1794;-45
2023/09/05 06:34:50;;;;;;;;;;;;;;;23.72;50.32;101183.09;7397509;19;1364;-44
2023/09/05 06:37:28;;;;;;;;;;;;;;;23.87;50.22;101193.34;7397607;19;1467;-44
2023/09/05 06:39:57;;;;;;;;;;;;;;;24.03;49.70;101185.34;7397352;19;1853;-45
2023/09/05 06:42:25;;;;;;;;;;;;;;;24.11;49.77;101193.50;7396796;19;1709;-45
2023/09/05 06:44:53;;;;;;;;;;;;;;;24.04;49.67;101191.63;7395973;19;1322;-45
2023/09/05 06:47:21;;;;;;;;;;;;;;;24.05;50.09;101194.16;7394336;19;1582;-45
2023/09/05 06:49:50;;;;;;;;;;;;;;;24.24;49.73;101193.09;7395212;19;2339;-46
2023/09/05 06:52:21;;;;;;;;;;;;;;;24.30;49.69;101186.22;7396524;19;1788;-46
2023/09/05 06:54:50;;;;;;;;;;;;;;;24.18;49.75;101205.38;7396612;19;1879;-45
2023/09/05 06:57:19;;;;;;;;;;;;;;;24.27;49.45;101211.69;7395984;19;1609;-45
2023/09/05 06:59:48;;;;;;;;;;;;;;;24.21;49.55;101210.50;7395575;19;1834;-46
2023/09/05 07:02:16;;;;;;;;;;;;;;;24.24;49.37;101192.25;7395239;19;1420;-46
2023/09/05 07:04:44;;;;;;;;;;;;;;;24.37;49.28;101201.63;7394780;19;1494;-45
2023/09/05 07:07:13;;;;;;;;;;;;;;;24.76;48.63;101221.94;7395473;19;1361;-46
2023/09/05 07:09:43;;;;;;;;;;;;;;;25.05;48.12;101205.31;7381524;19;1554;-46
2023/09/05 07:12:12;;;;;;;;;;;;;;;25.13;48.13;101218.03;7395728;19;1256;-45
2023/09/05 07:14:40;;;;;;;;;;;;;;;25.27;48.07;101222.81;7395654;19;1880;-46
2023/09/05 07:17:08;;;;;;;;;;;;;;;25.43;47.59;101221.13;7396391;19;1733;-46
2023/09/05 07:19:37;;;;;;;;;;;;;;;25.24;47.83;101233.97;7395174;19;1829;-45
2023/09/05 07:22:05;;;;;;;;;;;;;;;25.17;48.03;101222.09;7393005;19;1843;-46
2023/09/05 07:24:33;;;;;;;;;;;;;;;25.38;48.32;101230.59;7395712;19;1617;-46
2023/09/05 07:27:04;;;;;;;;;;;;;;;25.38;48.24;101225.19;7395397;19;1508;-46
2023/09/05 07:29:33;;;;;;;;;;;;;;;25.15;49.05;101221.41;7394992;19;1404;-46
2023/09/05 07:32:01;;;;;;;;;;;;;;;24.50;49.88;101235.47;7396066;19;1516;-45
2023/09/05 07:34:30;;;;;;;;;;;;;;;24.13;50.65;101215.84;7394742;19;1739;-46
2023/09/05 07:36:58;;;;;;;;;;;;;;;23.96;51.68;101216.72;7395276;19;1409;-45
2023/09/05 07:39:26;;;;;;;;;;;;;;;23.97;51.88;101224.69;7398748;19;1812;-45
2023/09/05 07:41:55;;;;;;;;;;;;;;;23.93;52.51;101198.97;7400099;19;1850;-45
2023/09/05 07:44:26;;;;;;;;;;;;;;;23.87;53.18;101196.88;7402378;19;1814;-45
2023/09/05 07:46:54;;;;;;;;;;;;;;;23.83;53.31;101168.50;7403707;19;1596;-45
2023/09/05 07:49:22;;;;;;;;;;;;;;;23.86;53.54;101183.56;7402409;19;1363;-45
2023/09/05 07:51:50;;;;;;;;;;;;;;;23.90;53.94;101160.63;7402935;19;1498;-45
2023/09/05 07:54:20;;;;;;;;;;;;;;;23.79;53.76;101169.81;7402034;19;2122;-45
2023/09/05 07:56:49;;;;;;;;;;;;;;;23.82;54.00;101173.06;7402594;19;1657;-44
2023/09/05 07:59:17;;;;;;;;;;;;;;;23.80;54.16;101152.63;7401811;19;1404;-45
2023/09/05 08:01:48;;;;;;;;;;;;;;;23.81;54.34;101182.19;7399878;19;1857;-45
2023/09/05 08:04:16;;;;;;;;;;;;;;;23.77;54.69;101164.56;7403103;19;1749;-45
2023/09/05 08:06:44;;;;;;;;;;;;;;;23.73;54.60;101179.38;7399878;19;1401;-45
2023/09/05 08:09:13;;;;;;;;;;;;;;;23.77;54.52;101169.97;7399296;19;1808;-44
2023/09/05 08:11:41;;;;;;;;;;;;;;;23.66;55.06;101183.72;7384544;19;1487;-45
2023/09/05 08:14:09;;;;;;;;;;;;;;;23.70;54.91;101174.28;7401631;19;1749;-45
2023/09/05 08:16:38;;;;;;;;;;;;;;;23.65;54.94;101184.72;7401118;19;1872;-46
2023/09/05 08:19:08;;;;;;;;;;;;;;;23.69;54.89;101179.84;7400059;19;1528;-44
2023/09/05 08:21:37;;;;;;;;;;;;;;;23.72;54.76;101164.19;7400346;19;1842;-44
2023/09/05 08:24:05;;;;;;;;;;;;;;;23.83;54.41;101187.41;7401516;19;1538;-45
2023/09/05 08:26:36;;;;;;;;;;;;;;;23.74;54.86;101164.03;7400353;19;1617;-45
2023/09/05 08:29:06;;;;;;;;;;;;;;;23.66;55.29;101175.63;7398923;19;1447;-45
2023/09/05 08:31:34;;;;;;;;;;;;;;;23.72;54.87;101168.75;7397820;19;1552;-45
2023/09/05 08:34:02;;;;;;;;;;;;;;;23.70;55.10;101173.47;7398822;19;1553;-45
2023/09/05 08:36:34;;;;;;;;;;;;;;;23.61;55.62;101140.13;7400981;19;1491;-46
2023/09/05 08:39:03;;;;;;;;;;;;;;;23.59;55.47;101167.28;7400280;19;1383;-44
2023/09/05 08:41:33;;;;;;;;;;;;;;;23.54;56.10;101168.78;7399008;19;1867;-45
2023/09/05 08:44:02;;;;;;;;;;;;;;;23.65;55.74;101148.75;7400279;19;1887;-44
2023/09/05 08:46:31;;;;;;;;;;;;;;;23.63;55.95;101140.81;7399509;19;1970;-45
2023/09/05 08:48:59;;;;;;;;;;;;;;;23.60;56.00;101168.16;7399509;19;1751;-45
2023/09/05 08:51:33;;;;;;;;;;;;;;;23.63;55.82;101144.38;7398784;19;1672;-45
2023/09/05 08:54:06;;;;;;;;;;;;;;;23.70;55.52;101155.41;7397614;19;1488;-45
2023/09/05 08:56:34;;;;;;;;;;;;;;;23.56;56.36;101156.81;7399549;19;1617;-45
2023/09/05 08:59:03;;;;;;;;;;;;;;;23.66;56.02;101159.41;7401148;19;1404;-46
2023/09/05 09:01:35;;;;;;;;;;;;;;;23.66;56.07;101172.91;7399323;19;1840;-44
2023/09/05 09:04:03;;;;;;;;;;;;;;;23.59;56.54;101171.84;7400973;19;1562;-45
2023/09/05 09:06:32;;;;;;;;;;;;;;;23.63;56.23;101166.00;7398223;19;1823;-45
2023/09/05 09:09:00;;;;;;;;;;;;;;;23.75;56.05;101165.72;7398124;19;1500;-45
2023/09/05 09:11:32;;;;;;;;;;;;;;;23.71;56.42;101184.06;7385199;19;1554;-45
2023/09/05 09:14:01;;;;;;;;;;;;;;;23.77;55.97;101178.06;7400138;19;1566;-45
2023/09/05 09:16:29;;;;;;;;;;;;;;;23.79;56.29;101176.06;7399346;19;1810;-46
2023/09/05 09:19:05;;;;;;;;;;;;;;;23.65;56.56;101163.09;7398956;19;1467;-45
2023/09/05 09:21:35;;;;;;;;;;;;;;;23.66;56.78;101147.78;7397190;19;1842;-45
2023/09/05 09:24:09;;;;;;;;;;;;;;;23.74;56.90;101154.06;7398761;19;1565;-45
2023/09/05 09:26:41;;;;;;;;;;;;;;;23.73;56.90;101167.72;7398509;19;1616;-45
2023/09/05 09:29:09;;;;;;;;;;;;;;;23.88;51.97;101166.19;7398954;19;1581;-47
2023/09/05 09:31:39;;;;;;;;;;;;;;;24.24;51.12;101167.94;7398224;19;1602;-46
2023/09/05 09:34:09;;;;;;;;;;;;;;;24.65;48.88;101177.13;7399373;19;1601;-46
2023/09/05 09:36:38;;;;;;;;;;;;;;;24.74;49.04;101153.66;7397421;19;1559;-45
2023/09/05 09:39:10;;;;;;;;;;;;;;;24.69;48.35;101154.16;7398198;19;1432;-46
2023/09/05 09:41:46;;;;;;;;;;;;;;;24.68;47.80;101152.44;7398656;19;1857;-45
2023/09/05 09:44:25;;;;;;;;;;;;;;;24.59;46.80;101154.28;7399161;19;1424;-46
2023/09/05 09:46:54;;;;;;;;;;;;;;;24.56;47.34;101170.81;7398581;19;1555;-45
2023/09/05 09:49:25;;;;;;;;;;;;;;;24.81;47.23;101154.69;7398983;19;1512;-46
2023/09/05 09:51:55;;;;;;;;;;;;;;;25.16;47.19;101155.44;7398812;19;1585;-46
2023/09/05 09:54:27;;;;;;;;;;;;;;;25.29;47.21;101147.69;7397874;19;1510;-46
2023/09/05 09:56:58;;;;;;;;;;;;;;;25.48;46.85;101153.78;7395480;19;1855;-53
2023/09/05 09:59:35;;;;;;;;;;;;;;;25.52;47.18;101176.81;7397344;19;1490;-46
2023/09/05 10:02:04;;;;;;;;;;;;;;;25.12;46.20;101154.91;7394701;19;1838;-45
2023/09/05 10:04:33;;;;;;;;;;;;;;;24.63;46.23;101159.34;7397953;19;1454;-45
2023/09/05 10:07:01;;;;;;;;;;;;;;;24.68;46.14;101160.56;7397337;19;1529;-45
2023/09/05 10:09:31;;;;;;;;;;;;;;;24.91;45.69;101155.41;7397293;19;1566;-45
2023/09/05 10:12:05;;;;;;;;;;;;;;;24.94;45.80;101146.94;7383654;19;1856;-44
2023/09/05 10:14:33;;;;;;;;;;;;;;;24.88;45.43;101166.53;7398742;19;1803;-44
2023/09/05 10:17:02;;;;;;;;;;;;;;;24.94;45.47;101157.75;7397319;19;1349;-46
2023/09/05 10:19:31;;;;;;;;;;;;;;;24.82;45.04;101156.38;7395920;19;1827;-45
2023/09/05 10:22:00;;;;;;;;;;;;;;;24.78;45.60;101168.53;7394227;19;1834;-45
2023/09/05 10:24:31;;;;;;;;;;;;;;;24.81;45.58;101163.66;7395986;19;1377;-45
2023/09/05 10:26:59;;;;;;;;;;;;;;;24.88;44.80;101171.94;7395692;19;1676;-45
2023/09/05 10:29:37;;;;;;;;;;;;;;;24.95;45.22;101166.75;7392828;19;1400;-45
2023/09/05 10:32:05;;;;;;;;;;;;;;;24.93;45.14;101183.13;7392924;19;1511;-46
2023/09/05 10:34:48;;;;;;;;;;;;;;;24.70;44.99;101182.03;7394019;19;1446;-46
2023/09/05 10:37:17;;;;;;;;;;;;;;;24.90;44.88;101194.25;7393577;19;2074;-45
2023/09/05 10:39:46;;;;;;;;;;;;;;;24.95;44.70;101191.09;7396162;19;2015;-45
2023/09/05 10:42:15;;;;;;;;;;;;;;;25.15;45.48;101186.22;7394889;19;1853;-45
2023/09/05 10:44:47;;;;;;;;;;;;;;;25.23;44.91;101185.41;7397022;19;1628;-46
2023/09/05 10:47:29;;;;;;;;;;;;;;;25.29;45.07;101193.72;7397116;19;1549;-46
2023/09/05 10:50:01;;;;;;;;;;;;;;;24.96;44.47;101187.34;7396102;19;1393;-46
2023/09/05 10:52:29;;;;;;;;;;;;;;;24.86;44.84;101192.06;7396648;19;1454;-44
2023/09/05 10:54:59;;;;;;;;;;;;;;;24.85;45.10;101202.03;7395985;19;1476;-45
2023/09/05 10:57:42;;;;;;;;;;;;;;;24.89;45.32;101189.88;7395325;19;1505;-46
2023/09/05 11:00:27;;;;;;;;;;;;;;;25.01;45.56;101188.56;7396092;19;1499;-46
2023/09/05 11:02:58;;;;;;;;;;;;;;;24.90;45.11;101191.56;7395014;19;1847;-46
2023/09/05 11:05:27;;;;;;;;;;;;;;;24.89;44.77;101176.34;7395759;19;1728;-45
2023/09/05 11:07:56;;;;;;;;;;;;;;;24.98;45.13;101175.34;7394854;19;1352;-46
2023/09/05 11:10:28;;;;;;;;;;;;;;;24.94;45.12;101168.56;7380056;19;1567;-44
2023/09/05 11:12:56;;;;;;;;;;;;;;;25.01;45.18;101169.63;7399532;19;1435;-46
2023/09/05 11:15:32;;;;;;;;;;;;;;;25.08;45.12;101166.25;7402070;19;1468;-46
2023/09/05 11:18:04;;;;;;;;;;;;;;;25.14;45.11;101168.28;7401327;19;1709;-45
2023/09/05 11:20:41;;;;;;;;;;;;;;;25.19;44.86;101160.53;7403096;19;1349;-46
2023/09/05 11:23:13;;;;;;;;;;;;;;;25.13;44.66;101178.28;7400784;19;1849;-45
2023/09/05 11:25:45;;;;;;;;;;;;;;;25.02;45.02;101170.47;7403186;19;1397;-45
2023/09/05 11:28:13;;;;;;;;;;;;;;;25.01;45.34;101169.63;7402822;19;1651;-46
2023/09/05 11:30:42;;;;;;;;;;;;;;;25.17;45.25;101162.56;7403147;19;1400;-45
2023/09/05 11:33:14;;;;;;;;;;;;;;;25.33;45.49;101172.59;7403524;19;2221;-46
2023/09/05 11:35:42;;;;;;;;;;;;;;;25.51;46.03;101150.75;7402795;19;1961;-45
2023/09/05 11:38:10;;;;;;;;;;;;;;;25.60;46.55;101169.56;7398015;19;1524;-48
2023/09/05 11:40:40;;;;;;;;;;;;;;;25.73;45.69;101171.72;7401743;19;1721;-46
2023/09/05 11:43:10;;;;;;;;;;;;;;;25.64;46.83;101158.38;7395509;19;1881;-46
2023/09/05 11:45:39;;;;;;;;;;;;;;;25.72;46.27;101166.47;7398095;19;1605;-46
2023/09/05 11:48:11;;;;;;;;;;;;;;;25.58;46.92;101181.56;7394202;19;1346;-46
2023/09/05 11:50:43;;;;;;;;;;;;;;;25.44;46.81;101164.13;7396808;19;1434;-45
2023/09/05 11:53:14;;;;;;;;;;;;;;;25.51;46.43;101161.59;7393568;19;1420;-45
2023/09/05 11:55:42;;;;;;;;;;;;;;;25.54;46.48;101180.19;7398559;19;1673;-46
2023/09/05 11:58:13;;;;;;;;;;;;;;;25.55;47.23;101162.94;7397389;19;2242;-46
2023/09/05 12:00:44;;;;;;;;;;;;;;;25.55;47.56;101163.78;7395318;19;1463;-46
2023/09/05 12:03:15;;;;;;;;;;;;;;;25.57;46.84;101155.50;7393717;19;1861;-45
2023/09/05 12:05:49;;;;;;;;;;;;;;;25.56;47.55;101165.47;7393754;19;1688;-45
2023/09/05 12:08:20;;;;;;;;;;;;;;;25.54;47.53;101166.66;7396150;19;1536;-46
2023/09/05 12:10:51;;;;;;;;;;;;;;;25.55;45.90;101152.13;7378759;19;1400;-45
2023/09/05 12:13:19;;;;;;;;;;;;;;;25.60;47.02;101153.31;7394725;19;1617;-46
2023/09/05 12:15:50;;;;;;;;;;;;;;;25.51;46.90;101162.44;7395484;19;1405;-46
2023/09/05 12:18:20;;;;;;;;;;;;;;;25.53;46.70;101152.28;7396612;19;1521;-46
2023/09/05 12:21:00;;;;;;;;;;;;;;;25.64;46.99;101142.94;7393797;19;1648;-46
2023/09/05 12:23:28;;;;;;;;;;;;;;;25.63;46.90;101167.53;7389224;19;1865;-50
2023/09/05 12:25:57;;;;;;;;;;;;;;;25.58;45.83;101157.19;7391547;19;1377;-46
2023/09/05 12:28:26;;;;;;;;;;;;;;;25.42;47.14;101154.47;7392931;19;1832;-46
2023/09/05 12:31:06;;;;;;;;;;;;;;;25.36;47.25;101148.69;7396004;19;1456;-46
2023/09/05 12:33:34;;;;;;;;;;;;;;;25.34;47.62;101134.50;7395811;19;1638;-46
2023/09/05 12:36:06;;;;;;;;;;;;;;;25.37;47.73;101134.16;7395375;19;1027;-47
2023/09/05 12:38:34;;;;;;;;;;;;;;;25.45;45.19;101165.81;7394402;19;1729;-46
2023/09/05 12:41:02;;;;;;;;;;;;;;;25.52;45.18;101161.41;7392550;19;1600;-45
2023/09/05 12:43:31;;;;;;;;;;;;;;;25.62;44.91;101134.16;7392153;19;1877;-46
2023/09/05 12:45:59;;;;;;;;;;;;;;;25.64;46.46;101140.25;7393334;19;1955;-46
2023/09/05 12:48:27;;;;;;;;;;;;;;;25.56;47.70;101129.41;7394417;19;1361;-46
2023/09/05 12:50:56;;;;;;;;;;;;;;;25.59;47.04;101148.06;7392809;19;1387;-46
2023/09/05 12:53:27;;;;;;;;;;;;;;;25.54;47.97;101134.16;7389613;19;1776;-46
2023/09/05 12:55:56;;;;;;;;;;;;;;;25.42;48.33;101141.78;7392661;19;1212;-46
2023/09/05 12:58:26;;;;;;;;;;;;;;;25.46;48.09;101129.59;7393694;19;1439;-46
2023/09/05 13:00:54;;;;;;;;;;;;;;;25.40;48.50;101141.09;7393191;19;1515;-46